sensor_id;sensor_type;location;lat;lon;timestamp;P1;durP1;ratioP1;P2;durP2;ratioP2
7231;SDS011;3657;49.630;11.018;2022-11-11T00:02:09;14.30;;;13.40;;
7231;SDS011;3657;49.630;11.018;2022-11-11T00:04:36;14.40;;;13.57;;
7231;SDS011;3657;49.630;11.018;2022-11-11T00:07:02;13.90;;;13.20;;
7231;SDS011;3657;49.630;11.018;2022-11-11T00:09:29;14.13;;;13.43;;
7231;SDS011;3657;49.630;11.018;2022-11-11T00:11:56;13.47;;;12.77;;
7231;SDS011;3657;49.630;11.018;2022-11-11T00:14:23;13.80;;;13.00;;
7231;SDS011;3657;49.630;11.018;2022-11-11T00:16:49;13.20;;;12.60;;
7231;SDS011;3657;49.630;11.018;2022-11-11T00:19:35;13.43;;;12.73;;
7231;SDS011;3657;49.630;11.018;2022-11-11T00:22:19;13.87;;;13.27;;
7231;SDS011;3657;49.630;11.018;2022-11-11T00:25:04;12.77;;;12.20;;
7231;SDS011;3657;49.630;11.018;2022-11-11T00:27:32;13.83;;;13.13;;
7231;SDS011;3657;49.630;11.018;2022-11-11T00:29:59;13.87;;;13.17;;
7231;SDS011;3657;49.630;11.018;2022-11-11T00:32:26;13.37;;;12.67;;
7231;SDS011;3657;49.630;11.018;2022-11-11T00:34:56;14.03;;;13.33;;
7231;SDS011;3657;49.630;11.018;2022-11-11T00:37:42;14.30;;;13.47;;
7231;SDS011;3657;49.630;11.018;2022-11-11T00:40:10;12.90;;;12.30;;
7231;SDS011;3657;49.630;11.018;2022-11-11T00:42:38;14.23;;;13.63;;
7231;SDS011;3657;49.630;11.018;2022-11-11T00:45:05;12.70;;;12.03;;
7231;SDS011;3657;49.630;11.018;2022-11-11T00:47:33;12.10;;;11.57;;
7231;SDS011;3657;49.630;11.018;2022-11-11T00:50:19;12.07;;;11.43;;
7231;SDS011;3657;49.630;11.018;2022-11-11T00:53:07;12.10;;;11.60;;
7231;SDS011;3657;49.630;11.018;2022-11-11T00:55:35;12.17;;;11.57;;
7231;SDS011;3657;49.630;11.018;2022-11-11T00:58:02;12.17;;;11.63;;
7231;SDS011;3657;49.630;11.018;2022-11-11T01:00:29;12.93;;;12.33;;
7231;SDS011;3657;49.630;11.018;2022-11-11T01:02:56;12.90;;;12.20;;
7231;SDS011;3657;49.630;11.018;2022-11-11T01:05:24;12.50;;;12.00;;
7231;SDS011;3657;49.630;11.018;2022-11-11T01:07:51;12.10;;;11.40;;
7231;SDS011;3657;49.630;11.018;2022-11-11T01:10:18;13.40;;;12.63;;
7231;SDS011;3657;49.630;11.018;2022-11-11T01:13:00;13.70;;;12.90;;
7231;SDS011;3657;49.630;11.018;2022-11-11T01:15:36;15.37;;;14.33;;
7231;SDS011;3657;49.630;11.018;2022-11-11T01:18:03;12.03;;;11.57;;
7231;SDS011;3657;49.630;11.018;2022-11-11T01:20:32;12.13;;;11.63;;
7231;SDS011;3657;49.630;11.018;2022-11-11T01:22:59;13.03;;;12.43;;
7231;SDS011;3657;49.630;11.018;2022-11-11T01:25:25;12.53;;;12.03;;
7231;SDS011;3657;49.630;11.018;2022-11-11T01:27:52;12.37;;;11.80;;
7231;SDS011;3657;49.630;11.018;2022-11-11T01:30:19;13.17;;;12.57;;
7231;SDS011;3657;49.630;11.018;2022-11-11T01:32:45;13.30;;;12.70;;
7231;SDS011;3657;49.630;11.018;2022-11-11T01:35:12;11.73;;;11.23;;
7231;SDS011;3657;49.630;11.018;2022-11-11T01:37:40;12.17;;;11.67;;
7231;SDS011;3657;49.630;11.018;2022-11-11T01:40:08;12.90;;;12.20;;
7231;SDS011;3657;49.630;11.018;2022-11-11T01:42:44;12.60;;;12.00;;
7231;SDS011;3657;49.630;11.018;2022-11-11T01:48:13;13.27;;;12.67;;
7231;SDS011;3657;49.630;11.018;2022-11-11T01:51:00;13.67;;;12.97;;
7231;SDS011;3657;49.630;11.018;2022-11-11T01:53:30;13.40;;;12.73;;
7231;SDS011;3657;49.630;11.018;2022-11-11T01:55:57;13.87;;;13.07;;
7231;SDS011;3657;49.630;11.018;2022-11-11T01:58:26;13.73;;;13.03;;
7231;SDS011;3657;49.630;11.018;2022-11-11T02:00:53;14.00;;;13.37;;
7231;SDS011;3657;49.630;11.018;2022-11-11T02:03:20;13.70;;;12.93;;
7231;SDS011;3657;49.630;11.018;2022-11-11T02:05:50;12.97;;;12.37;;
7231;SDS011;3657;49.630;11.018;2022-11-11T02:08:21;13.10;;;12.50;;
7231;SDS011;3657;49.630;11.018;2022-11-11T02:10:58;12.73;;;12.13;;
7231;SDS011;3657;49.630;11.018;2022-11-11T02:13:27;12.47;;;11.90;;
7231;SDS011;3657;49.630;11.018;2022-11-11T02:16:13;12.50;;;12.00;;
7231;SDS011;3657;49.630;11.018;2022-11-11T02:18:40;12.40;;;11.83;;
7231;SDS011;3657;49.630;11.018;2022-11-11T02:21:08;11.37;;;10.87;;
7231;SDS011;3657;49.630;11.018;2022-11-11T02:23:38;12.53;;;11.83;;
7231;SDS011;3657;49.630;11.018;2022-11-11T02:26:13;11.63;;;11.13;;
7231;SDS011;3657;49.630;11.018;2022-11-11T02:28:42;12.90;;;12.13;;
7231;SDS011;3657;49.630;11.018;2022-11-11T02:31:11;12.73;;;12.13;;
7231;SDS011;3657;49.630;11.018;2022-11-11T02:33:38;12.23;;;11.73;;
7231;SDS011;3657;49.630;11.018;2022-11-11T02:36:05;12.77;;;11.97;;
7231;SDS011;3657;49.630;11.018;2022-11-11T02:38:35;11.20;;;10.80;;
7231;SDS011;3657;49.630;11.018;2022-11-11T02:41:02;11.67;;;11.17;;
7231;SDS011;3657;49.630;11.018;2022-11-11T02:43:47;11.70;;;11.10;;
7231;SDS011;3657;49.630;11.018;2022-11-11T02:46:14;11.30;;;10.90;;
7231;SDS011;3657;49.630;11.018;2022-11-11T02:48:41;11.67;;;11.17;;
7231;SDS011;3657;49.630;11.018;2022-11-11T02:51:08;11.67;;;11.17;;
7231;SDS011;3657;49.630;11.018;2022-11-11T02:53:34;11.90;;;11.30;;
7231;SDS011;3657;49.630;11.018;2022-11-11T02:56:01;11.90;;;11.40;;
7231;SDS011;3657;49.630;11.018;2022-11-11T02:58:28;11.97;;;11.47;;
7231;SDS011;3657;49.630;11.018;2022-11-11T03:00:57;11.23;;;10.90;;
7231;SDS011;3657;49.630;11.018;2022-11-11T03:03:23;11.57;;;11.07;;
7231;SDS011;3657;49.630;11.018;2022-11-11T03:05:50;11.13;;;10.73;;
7231;SDS011;3657;49.630;11.018;2022-11-11T03:08:17;11.47;;;10.93;;
7231;SDS011;3657;49.630;11.018;2022-11-11T03:10:43;11.27;;;10.70;;
7231;SDS011;3657;49.630;11.018;2022-11-11T03:13:10;11.57;;;11.07;;
7231;SDS011;3657;49.630;11.018;2022-11-11T03:15:37;14.97;;;14.00;;
7231;SDS011;3657;49.630;11.018;2022-11-11T03:18:05;11.97;;;11.47;;
7231;SDS011;3657;49.630;11.018;2022-11-11T03:20:30;14.83;;;13.70;;
7231;SDS011;3657;49.630;11.018;2022-11-11T03:23:15;11.73;;;11.23;;
7231;SDS011;3657;49.630;11.018;2022-11-11T03:25:42;12.47;;;11.87;;
7231;SDS011;3657;49.630;11.018;2022-11-11T03:28:12;11.17;;;10.67;;
7231;SDS011;3657;49.630;11.018;2022-11-11T03:30:40;11.37;;;10.97;;
7231;SDS011;3657;49.630;11.018;2022-11-11T03:33:10;13.33;;;12.60;;
7231;SDS011;3657;49.630;11.018;2022-11-11T03:35:37;11.57;;;11.07;;
7231;SDS011;3657;49.630;11.018;2022-11-11T03:38:04;12.40;;;11.83;;
7231;SDS011;3657;49.630;11.018;2022-11-11T03:40:40;11.63;;;11.13;;
7231;SDS011;3657;49.630;11.018;2022-11-11T03:43:07;12.30;;;11.70;;
7231;SDS011;3657;49.630;11.018;2022-11-11T03:45:34;12.47;;;11.87;;
7231;SDS011;3657;49.630;11.018;2022-11-11T03:48:01;12.30;;;11.80;;
7231;SDS011;3657;49.630;11.018;2022-11-11T03:50:29;12.30;;;11.70;;
7231;SDS011;3657;49.630;11.018;2022-11-11T03:52:56;11.93;;;11.33;;
7231;SDS011;3657;49.630;11.018;2022-11-11T03:55:22;12.37;;;11.77;;
7231;SDS011;3657;49.630;11.018;2022-11-11T03:57:49;11.53;;;11.03;;
7231;SDS011;3657;49.630;11.018;2022-11-11T04:00:16;12.03;;;11.43;;
7231;SDS011;3657;49.630;11.018;2022-11-11T04:02:45;12.67;;;11.97;;
7231;SDS011;3657;49.630;11.018;2022-11-11T04:05:31;12.17;;;11.67;;
7231;SDS011;3657;49.630;11.018;2022-11-11T04:08:15;12.67;;;12.00;;
7231;SDS011;3657;49.630;11.018;2022-11-11T04:11:02;12.40;;;11.80;;
7231;SDS011;3657;49.630;11.018;2022-11-11T04:13:31;12.23;;;11.73;;
7231;SDS011;3657;49.630;11.018;2022-11-11T04:16:16;11.33;;;10.90;;
7231;SDS011;3657;49.630;11.018;2022-11-11T04:18:42;11.33;;;10.83;;
7231;SDS011;3657;49.630;11.018;2022-11-11T04:21:28;11.67;;;11.13;;
7231;SDS011;3657;49.630;11.018;2022-11-11T04:24:11;11.17;;;10.77;;
7231;SDS011;3657;49.630;11.018;2022-11-11T04:26:57;10.50;;;10.10;;
7231;SDS011;3657;49.630;11.018;2022-11-11T04:29:25;10.27;;;9.93;;
7231;SDS011;3657;49.630;11.018;2022-11-11T04:31:54;10.40;;;10.00;;
7231;SDS011;3657;49.630;11.018;2022-11-11T04:34:40;10.53;;;10.13;;
7231;SDS011;3657;49.630;11.018;2022-11-11T04:37:08;11.13;;;10.63;;
7231;SDS011;3657;49.630;11.018;2022-11-11T04:39:35;9.73;;;9.43;;
7231;SDS011;3657;49.630;11.018;2022-11-11T04:42:20;10.57;;;10.17;;
7231;SDS011;3657;49.630;11.018;2022-11-11T04:44:47;10.23;;;9.83;;
7231;SDS011;3657;49.630;11.018;2022-11-11T04:47:32;10.30;;;9.90;;
7231;SDS011;3657;49.630;11.018;2022-11-11T04:49:58;9.07;;;8.77;;
7231;SDS011;3657;49.630;11.018;2022-11-11T04:52:26;10.37;;;9.97;;
7231;SDS011;3657;49.630;11.018;2022-11-11T04:54:54;9.47;;;9.17;;
7231;SDS011;3657;49.630;11.018;2022-11-11T04:57:39;10.33;;;9.93;;
7231;SDS011;3657;49.630;11.018;2022-11-11T05:00:07;9.73;;;9.33;;
7231;SDS011;3657;49.630;11.018;2022-11-11T05:02:36;9.80;;;9.40;;
7231;SDS011;3657;49.630;11.018;2022-11-11T05:05:20;10.03;;;9.63;;
7231;SDS011;3657;49.630;11.018;2022-11-11T05:07:48;10.23;;;9.83;;
7231;SDS011;3657;49.630;11.018;2022-11-11T05:10:32;10.80;;;10.40;;
7231;SDS011;3657;49.630;11.018;2022-11-11T05:12:59;11.00;;;10.50;;
7231;SDS011;3657;49.630;11.018;2022-11-11T05:15:44;11.70;;;11.20;;
7231;SDS011;3657;49.630;11.018;2022-11-11T05:18:28;10.73;;;10.33;;
7231;SDS011;3657;49.630;11.018;2022-11-11T05:21:13;10.70;;;10.20;;
7231;SDS011;3657;49.630;11.018;2022-11-11T05:23:47;11.50;;;11.00;;
7231;SDS011;3657;49.630;11.018;2022-11-11T05:26:31;10.87;;;10.47;;
7231;SDS011;3657;49.630;11.018;2022-11-11T05:28:58;10.07;;;9.67;;
7231;SDS011;3657;49.630;11.018;2022-11-11T05:31:25;11.13;;;10.73;;
7231;SDS011;3657;49.630;11.018;2022-11-11T05:33:52;10.67;;;10.27;;
7231;SDS011;3657;49.630;11.018;2022-11-11T05:36:18;11.33;;;10.60;;
7231;SDS011;3657;49.630;11.018;2022-11-11T05:38:46;10.93;;;10.43;;
7231;SDS011;3657;49.630;11.018;2022-11-11T05:41:13;10.87;;;10.37;;
7231;SDS011;3657;49.630;11.018;2022-11-11T05:43:40;11.13;;;10.63;;
7231;SDS011;3657;49.630;11.018;2022-11-11T05:46:07;11.17;;;10.57;;
7231;SDS011;3657;49.630;11.018;2022-11-11T05:48:33;10.67;;;10.17;;
7231;SDS011;3657;49.630;11.018;2022-11-11T05:51:20;10.20;;;9.80;;
7231;SDS011;3657;49.630;11.018;2022-11-11T05:53:53;11.07;;;10.57;;
7231;SDS011;3657;49.630;11.018;2022-11-11T05:56:20;12.03;;;11.43;;
7231;SDS011;3657;49.630;11.018;2022-11-11T05:58:47;11.97;;;11.37;;
7231;SDS011;3657;49.630;11.018;2022-11-11T06:01:14;11.77;;;11.27;;
7231;SDS011;3657;49.630;11.018;2022-11-11T06:03:41;11.93;;;11.43;;
7231;SDS011;3657;49.630;11.018;2022-11-11T06:06:07;12.33;;;11.73;;
7231;SDS011;3657;49.630;11.018;2022-11-11T06:08:34;11.53;;;11.03;;
7231;SDS011;3657;49.630;11.018;2022-11-11T06:11:02;11.90;;;11.30;;
7231;SDS011;3657;49.630;11.018;2022-11-11T06:13:29;12.07;;;11.47;;
7231;SDS011;3657;49.630;11.018;2022-11-11T06:15:56;11.97;;;11.37;;
7231;SDS011;3657;49.630;11.018;2022-11-11T06:18:23;12.73;;;12.03;;
7231;SDS011;3657;49.630;11.018;2022-11-11T06:20:51;13.43;;;12.53;;
7231;SDS011;3657;49.630;11.018;2022-11-11T06:23:18;13.17;;;12.57;;
7231;SDS011;3657;49.630;11.018;2022-11-11T06:25:45;12.57;;;11.77;;
7231;SDS011;3657;49.630;11.018;2022-11-11T06:28:31;13.20;;;12.37;;
7231;SDS011;3657;49.630;11.018;2022-11-11T06:30:57;12.63;;;11.93;;
7231;SDS011;3657;49.630;11.018;2022-11-11T06:33:24;13.13;;;12.53;;
7231;SDS011;3657;49.630;11.018;2022-11-11T06:35:51;12.40;;;11.83;;
7231;SDS011;3657;49.630;11.018;2022-11-11T06:38:18;12.80;;;12.20;;
7231;SDS011;3657;49.630;11.018;2022-11-11T06:40:45;12.20;;;11.60;;
7231;SDS011;3657;49.630;11.018;2022-11-11T06:43:12;12.43;;;11.83;;
7231;SDS011;3657;49.630;11.018;2022-11-11T06:45:40;12.87;;;12.27;;
7231;SDS011;3657;49.630;11.018;2022-11-11T06:48:06;13.00;;;12.40;;
7231;SDS011;3657;49.630;11.018;2022-11-11T06:50:34;13.47;;;12.77;;
7231;SDS011;3657;49.630;11.018;2022-11-11T06:53:04;12.70;;;12.10;;
7231;SDS011;3657;49.630;11.018;2022-11-11T06:55:31;12.70;;;12.00;;
7231;SDS011;3657;49.630;11.018;2022-11-11T06:58:04;12.73;;;12.13;;
7231;SDS011;3657;49.630;11.018;2022-11-11T07:00:32;12.10;;;11.50;;
7231;SDS011;3657;49.630;11.018;2022-11-11T07:03:01;12.33;;;11.73;;
7231;SDS011;3657;49.630;11.018;2022-11-11T07:05:28;12.33;;;11.63;;
7231;SDS011;3657;49.630;11.018;2022-11-11T07:07:54;12.70;;;11.80;;
7231;SDS011;3657;49.630;11.018;2022-11-11T07:10:21;11.70;;;11.17;;
7231;SDS011;3657;49.630;11.018;2022-11-11T07:12:48;12.07;;;11.57;;
7231;SDS011;3657;49.630;11.018;2022-11-11T07:15:15;11.40;;;10.90;;
7231;SDS011;3657;49.630;11.018;2022-11-11T07:17:42;13.20;;;12.50;;
7231;SDS011;3657;49.630;11.018;2022-11-11T07:20:10;13.53;;;12.73;;
7231;SDS011;3657;49.630;11.018;2022-11-11T07:22:37;13.37;;;12.53;;
7231;SDS011;3657;49.630;11.018;2022-11-11T07:25:04;12.87;;;12.27;;
7231;SDS011;3657;49.630;11.018;2022-11-11T07:27:31;14.07;;;13.37;;
7231;SDS011;3657;49.630;11.018;2022-11-11T07:30:01;14.17;;;13.40;;
7231;SDS011;3657;49.630;11.018;2022-11-11T07:32:28;13.47;;;12.77;;
7231;SDS011;3657;49.630;11.018;2022-11-11T07:34:54;16.57;;;15.37;;
7231;SDS011;3657;49.630;11.018;2022-11-11T07:37:22;16.43;;;15.00;;
7231;SDS011;3657;49.630;11.018;2022-11-11T07:39:49;12.30;;;11.63;;
7231;SDS011;3657;49.630;11.018;2022-11-11T07:42:16;12.30;;;11.70;;
7231;SDS011;3657;49.630;11.018;2022-11-11T07:44:43;12.70;;;11.90;;
7231;SDS011;3657;49.630;11.018;2022-11-11T07:47:10;13.30;;;12.50;;
7231;SDS011;3657;49.630;11.018;2022-11-11T07:49:36;16.90;;;15.80;;
7231;SDS011;3657;49.630;11.018;2022-11-11T07:52:03;17.30;;;16.17;;
7231;SDS011;3657;49.630;11.018;2022-11-11T07:54:32;15.70;;;14.23;;
7231;SDS011;3657;49.630;11.018;2022-11-11T07:56:58;14.43;;;13.47;;
7231;SDS011;3657;49.630;11.018;2022-11-11T07:59:25;12.73;;;11.83;;
7231;SDS011;3657;49.630;11.018;2022-11-11T08:01:52;12.90;;;12.20;;
7231;SDS011;3657;49.630;11.018;2022-11-11T08:04:18;15.70;;;14.37;;
7231;SDS011;3657;49.630;11.018;2022-11-11T08:06:45;15.33;;;14.03;;
7231;SDS011;3657;49.630;11.018;2022-11-11T08:09:12;14.23;;;13.17;;
7231;SDS011;3657;49.630;11.018;2022-11-11T08:11:40;13.77;;;12.47;;
7231;SDS011;3657;49.630;11.018;2022-11-11T08:14:24;12.20;;;11.47;;
7231;SDS011;3657;49.630;11.018;2022-11-11T08:16:51;11.97;;;11.27;;
7231;SDS011;3657;49.630;11.018;2022-11-11T08:19:18;11.63;;;11.10;;
7231;SDS011;3657;49.630;11.018;2022-11-11T08:21:44;15.57;;;14.67;;
7231;SDS011;3657;49.630;11.018;2022-11-11T08:24:11;20.63;;;18.77;;
7231;SDS011;3657;49.630;11.018;2022-11-11T08:26:39;14.80;;;13.87;;
7231;SDS011;3657;49.630;11.018;2022-11-11T08:29:06;13.37;;;12.67;;
7231;SDS011;3657;49.630;11.018;2022-11-11T08:31:33;18.30;;;16.97;;
7231;SDS011;3657;49.630;11.018;2022-11-11T08:34:00;12.73;;;12.10;;
7231;SDS011;3657;49.630;11.018;2022-11-11T08:36:27;20.57;;;19.13;;
7231;SDS011;3657;49.630;11.018;2022-11-11T08:38:53;12.90;;;12.17;;
7231;SDS011;3657;49.630;11.018;2022-11-11T08:41:20;14.60;;;13.70;;
7231;SDS011;3657;49.630;11.018;2022-11-11T08:43:51;13.03;;;12.37;;
7231;SDS011;3657;49.630;11.018;2022-11-11T08:46:18;14.97;;;13.87;;
7231;SDS011;3657;49.630;11.018;2022-11-11T08:48:45;12.43;;;11.83;;
7231;SDS011;3657;49.630;11.018;2022-11-11T08:51:12;14.50;;;13.60;;
7231;SDS011;3657;49.630;11.018;2022-11-11T08:53:39;12.57;;;11.60;;
7231;SDS011;3657;49.630;11.018;2022-11-11T08:56:07;14.50;;;13.40;;
7231;SDS011;3657;49.630;11.018;2022-11-11T08:58:34;14.57;;;13.47;;
7231;SDS011;3657;49.630;11.018;2022-11-11T09:01:02;13.07;;;12.17;;
7231;SDS011;3657;49.630;11.018;2022-11-11T09:03:29;22.57;;;19.23;;
7231;SDS011;3657;49.630;11.018;2022-11-11T09:05:56;24.83;;;22.43;;
7231;SDS011;3657;49.630;11.018;2022-11-11T09:08:23;23.07;;;20.87;;
7231;SDS011;3657;49.630;11.018;2022-11-11T09:10:50;27.53;;;23.10;;
7231;SDS011;3657;49.630;11.018;2022-11-11T09:13:16;19.60;;;17.63;;
7231;SDS011;3657;49.630;11.018;2022-11-11T09:15:43;20.73;;;18.97;;
7231;SDS011;3657;49.630;11.018;2022-11-11T09:18:11;16.40;;;14.83;;
7231;SDS011;3657;49.630;11.018;2022-11-11T09:20:38;16.03;;;15.13;;
7231;SDS011;3657;49.630;11.018;2022-11-11T09:23:04;16.83;;;15.70;;
7231;SDS011;3657;49.630;11.018;2022-11-11T09:25:31;17.93;;;16.50;;
7231;SDS011;3657;49.630;11.018;2022-11-11T09:27:58;15.23;;;14.27;;
7231;SDS011;3657;49.630;11.018;2022-11-11T09:30:26;18.87;;;17.10;;
7231;SDS011;3657;49.630;11.018;2022-11-11T09:32:54;15.27;;;14.33;;
7231;SDS011;3657;49.630;11.018;2022-11-11T09:35:27;16.67;;;15.47;;
7231;SDS011;3657;49.630;11.018;2022-11-11T09:37:54;18.40;;;16.53;;
7231;SDS011;3657;49.630;11.018;2022-11-11T09:40:22;14.13;;;13.27;;
7231;SDS011;3657;49.630;11.018;2022-11-11T09:42:53;14.23;;;13.43;;
7231;SDS011;3657;49.630;11.018;2022-11-11T09:45:28;16.90;;;15.70;;
7231;SDS011;3657;49.630;11.018;2022-11-11T09:48:04;16.77;;;15.63;;
7231;SDS011;3657;49.630;11.018;2022-11-11T09:50:46;13.60;;;12.90;;
7231;SDS011;3657;49.630;11.018;2022-11-11T09:53:19;14.93;;;14.03;;
7231;SDS011;3657;49.630;11.018;2022-11-11T09:55:51;15.67;;;14.67;;
7231;SDS011;3657;49.630;11.018;2022-11-11T09:58:22;17.43;;;15.90;;
7231;SDS011;3657;49.630;11.018;2022-11-11T10:00:56;18.83;;;17.10;;
7231;SDS011;3657;49.630;11.018;2022-11-11T10:03:26;13.73;;;13.03;;
7231;SDS011;3657;49.630;11.018;2022-11-11T10:05:58;14.03;;;13.27;;
7231;SDS011;3657;49.630;11.018;2022-11-11T10:08:29;13.63;;;12.83;;
7231;SDS011;3657;49.630;11.018;2022-11-11T10:11:00;16.83;;;15.50;;
7231;SDS011;3657;49.630;11.018;2022-11-11T10:13:31;18.97;;;16.70;;
7231;SDS011;3657;49.630;11.018;2022-11-11T10:16:01;15.23;;;14.30;;
7231;SDS011;3657;49.630;11.018;2022-11-11T10:18:36;17.67;;;16.30;;
7231;SDS011;3657;49.630;11.018;2022-11-11T10:21:25;11.47;;;10.83;;
7231;SDS011;3657;49.630;11.018;2022-11-11T10:24:01;16.33;;;15.07;;
7231;SDS011;3657;49.630;11.018;2022-11-11T10:26:36;17.13;;;16.10;;
7231;SDS011;3657;49.630;11.018;2022-11-11T10:29:08;12.97;;;12.07;;
7231;SDS011;3657;49.630;11.018;2022-11-11T10:31:39;15.10;;;13.97;;
7231;SDS011;3657;49.630;11.018;2022-11-11T10:34:08;13.37;;;12.60;;
7231;SDS011;3657;49.630;11.018;2022-11-11T10:36:41;17.80;;;16.57;;
7231;SDS011;3657;49.630;11.018;2022-11-11T10:39:12;11.77;;;11.00;;
7231;SDS011;3657;49.630;11.018;2022-11-11T10:41:43;13.43;;;12.63;;
7231;SDS011;3657;49.630;11.018;2022-11-11T10:44:19;13.70;;;13.00;;
7231;SDS011;3657;49.630;11.018;2022-11-11T10:46:53;13.13;;;12.43;;
7231;SDS011;3657;49.630;11.018;2022-11-11T10:49:28;13.50;;;12.70;;
7231;SDS011;3657;49.630;11.018;2022-11-11T10:52:00;13.43;;;12.53;;
7231;SDS011;3657;49.630;11.018;2022-11-11T10:54:36;13.90;;;13.20;;
7231;SDS011;3657;49.630;11.018;2022-11-11T10:57:08;13.27;;;12.17;;
7231;SDS011;3657;49.630;11.018;2022-11-11T10:59:43;12.50;;;11.80;;
7231;SDS011;3657;49.630;11.018;2022-11-11T11:02:12;11.93;;;11.50;;
7231;SDS011;3657;49.630;11.018;2022-11-11T11:04:46;13.17;;;12.37;;
7231;SDS011;3657;49.630;11.018;2022-11-11T11:07:20;9.90;;;9.40;;
7231;SDS011;3657;49.630;11.018;2022-11-11T11:09:52;11.90;;;11.30;;
7231;SDS011;3657;49.630;11.018;2022-11-11T11:12:24;8.77;;;8.47;;
7231;SDS011;3657;49.630;11.018;2022-11-11T11:14:58;9.30;;;8.97;;
7231;SDS011;3657;49.630;11.018;2022-11-11T11:17:31;14.27;;;13.40;;
7231;SDS011;3657;49.630;11.018;2022-11-11T11:20:06;11.43;;;10.73;;
7231;SDS011;3657;49.630;11.018;2022-11-11T11:22:46;8.23;;;7.93;;
7231;SDS011;3657;49.630;11.018;2022-11-11T11:25:15;8.13;;;7.73;;
7231;SDS011;3657;49.630;11.018;2022-11-11T11:27:43;10.73;;;10.23;;
7231;SDS011;3657;49.630;11.018;2022-11-11T11:30:11;9.60;;;9.10;;
7231;SDS011;3657;49.630;11.018;2022-11-11T11:32:40;7.30;;;6.90;;
7231;SDS011;3657;49.630;11.018;2022-11-11T11:35:09;9.60;;;9.20;;
7231;SDS011;3657;49.630;11.018;2022-11-11T11:37:55;8.50;;;8.20;;
7231;SDS011;3657;49.630;11.018;2022-11-11T11:40:22;11.40;;;10.40;;
7231;SDS011;3657;49.630;11.018;2022-11-11T11:42:48;8.27;;;7.93;;
7231;SDS011;3657;49.630;11.018;2022-11-11T11:45:18;8.60;;;8.27;;
7231;SDS011;3657;49.630;11.018;2022-11-11T11:47:49;8.20;;;7.80;;
7231;SDS011;3657;49.630;11.018;2022-11-11T11:50:30;7.63;;;7.37;;
7231;SDS011;3657;49.630;11.018;2022-11-11T11:53:14;8.17;;;7.87;;
7231;SDS011;3657;49.630;11.018;2022-11-11T11:55:52;8.53;;;8.23;;
7231;SDS011;3657;49.630;11.018;2022-11-11T11:58:29;7.70;;;7.30;;
7231;SDS011;3657;49.630;11.018;2022-11-11T12:01:02;8.10;;;7.80;;
7231;SDS011;3657;49.630;11.018;2022-11-11T12:06:26;10.50;;;10.00;;
7231;SDS011;3657;49.630;11.018;2022-11-11T12:09:05;8.27;;;7.97;;
7231;SDS011;3657;49.630;11.018;2022-11-11T12:11:39;7.83;;;7.53;;
7231;SDS011;3657;49.630;11.018;2022-11-11T12:14:25;7.30;;;6.97;;
7231;SDS011;3657;49.630;11.018;2022-11-11T12:17:03;8.10;;;7.80;;
7231;SDS011;3657;49.630;11.018;2022-11-11T12:19:41;8.27;;;7.97;;
7231;SDS011;3657;49.630;11.018;2022-11-11T12:22:22;7.93;;;7.57;;
7231;SDS011;3657;49.630;11.018;2022-11-11T12:24:54;7.07;;;6.87;;
7231;SDS011;3657;49.630;11.018;2022-11-11T12:27:30;7.30;;;7.10;;
7231;SDS011;3657;49.630;11.018;2022-11-11T12:30:04;8.87;;;8.57;;
7231;SDS011;3657;49.630;11.018;2022-11-11T12:32:42;7.90;;;7.60;;
7231;SDS011;3657;49.630;11.018;2022-11-11T12:35:36;6.67;;;6.47;;
7231;SDS011;3657;49.630;11.018;2022-11-11T12:38:17;7.57;;;7.23;;
7231;SDS011;3657;49.630;11.018;2022-11-11T12:40:58;7.50;;;7.20;;
7231;SDS011;3657;49.630;11.018;2022-11-11T12:43:33;7.57;;;7.37;;
7231;SDS011;3657;49.630;11.018;2022-11-11T12:46:10;7.10;;;6.90;;
7231;SDS011;3657;49.630;11.018;2022-11-11T12:48:48;6.37;;;6.17;;
7231;SDS011;3657;49.630;11.018;2022-11-11T12:51:26;7.60;;;7.20;;
7231;SDS011;3657;49.630;11.018;2022-11-11T12:54:09;8.00;;;7.60;;
7231;SDS011;3657;49.630;11.018;2022-11-11T12:56:50;7.10;;;6.80;;
7231;SDS011;3657;49.630;11.018;2022-11-11T12:59:24;6.67;;;6.47;;
7231;SDS011;3657;49.630;11.018;2022-11-11T13:02:02;7.50;;;7.20;;
7231;SDS011;3657;49.630;11.018;2022-11-11T13:04:48;7.80;;;7.60;;
7231;SDS011;3657;49.630;11.018;2022-11-11T13:07:40;6.60;;;6.27;;
7231;SDS011;3657;49.630;11.018;2022-11-11T13:10:22;11.93;;;11.13;;
7231;SDS011;3657;49.630;11.018;2022-11-11T13:12:56;6.10;;;5.90;;
7231;SDS011;3657;49.630;11.018;2022-11-11T13:15:29;6.77;;;6.57;;
7231;SDS011;3657;49.630;11.018;2022-11-11T13:17:57;6.80;;;6.50;;
7231;SDS011;3657;49.630;11.018;2022-11-11T13:20:29;6.53;;;6.23;;
7231;SDS011;3657;49.630;11.018;2022-11-11T13:23:07;6.60;;;6.37;;
7231;SDS011;3657;49.630;11.018;2022-11-11T13:25:34;5.80;;;5.60;;
7231;SDS011;3657;49.630;11.018;2022-11-11T13:28:06;7.33;;;7.03;;
7231;SDS011;3657;49.630;11.018;2022-11-11T13:30:43;7.03;;;6.83;;
7231;SDS011;3657;49.630;11.018;2022-11-11T13:33:19;6.73;;;6.43;;
7231;SDS011;3657;49.630;11.018;2022-11-11T13:35:50;6.47;;;6.07;;
7231;SDS011;3657;49.630;11.018;2022-11-11T13:38:24;5.67;;;5.47;;
7231;SDS011;3657;49.630;11.018;2022-11-11T13:40:53;6.53;;;6.33;;
7231;SDS011;3657;49.630;11.018;2022-11-11T13:43:24;6.13;;;5.93;;
7231;SDS011;3657;49.630;11.018;2022-11-11T13:45:55;6.17;;;5.97;;
7231;SDS011;3657;49.630;11.018;2022-11-11T13:48:25;5.87;;;5.67;;
7231;SDS011;3657;49.630;11.018;2022-11-11T13:50:53;7.70;;;7.30;;
7231;SDS011;3657;49.630;11.018;2022-11-11T13:53:46;6.97;;;6.67;;
7231;SDS011;3657;49.630;11.018;2022-11-11T13:56:20;7.57;;;7.17;;
7231;SDS011;3657;49.630;11.018;2022-11-11T13:58:50;6.43;;;6.23;;
7231;SDS011;3657;49.630;11.018;2022-11-11T14:01:20;7.20;;;6.90;;
7231;SDS011;3657;49.630;11.018;2022-11-11T14:03:57;6.40;;;6.20;;
7231;SDS011;3657;49.630;11.018;2022-11-11T14:06:36;8.40;;;8.00;;
7231;SDS011;3657;49.630;11.018;2022-11-11T14:12:21;6.73;;;6.53;;
7231;SDS011;3657;49.630;11.018;2022-11-11T14:15:01;7.80;;;7.50;;
7231;SDS011;3657;49.630;11.018;2022-11-11T14:17:32;7.37;;;6.97;;
7231;SDS011;3657;49.630;11.018;2022-11-11T14:23:13;7.67;;;7.30;;
7231;SDS011;3657;49.630;11.018;2022-11-11T14:25:48;7.90;;;7.60;;
7231;SDS011;3657;49.630;11.018;2022-11-11T14:28:20;10.30;;;9.70;;
7231;SDS011;3657;49.630;11.018;2022-11-11T14:30:50;8.30;;;8.00;;
7231;SDS011;3657;49.630;11.018;2022-11-11T14:33:19;7.40;;;7.00;;
7231;SDS011;3657;49.630;11.018;2022-11-11T14:35:59;6.70;;;6.40;;
7231;SDS011;3657;49.630;11.018;2022-11-11T14:38:37;7.00;;;6.80;;
7231;SDS011;3657;49.630;11.018;2022-11-11T14:47:31;6.87;;;6.47;;
7231;SDS011;3657;49.630;11.018;2022-11-11T14:49:59;6.37;;;6.13;;
7231;SDS011;3657;49.630;11.018;2022-11-11T14:52:32;9.13;;;8.43;;
7231;SDS011;3657;49.630;11.018;2022-11-11T14:55:02;11.87;;;11.07;;
7231;SDS011;3657;49.630;11.018;2022-11-11T14:57:36;7.53;;;7.23;;
7231;SDS011;3657;49.630;11.018;2022-11-11T15:00:09;6.83;;;6.53;;
7231;SDS011;3657;49.630;11.018;2022-11-11T15:02:40;8.83;;;8.13;;
7231;SDS011;3657;49.630;11.018;2022-11-11T15:05:15;7.47;;;7.10;;
7231;SDS011;3657;49.630;11.018;2022-11-11T15:07:52;6.67;;;6.47;;
7231;SDS011;3657;49.630;11.018;2022-11-11T15:10:41;6.20;;;5.90;;
7231;SDS011;3657;49.630;11.018;2022-11-11T15:16:24;6.00;;;5.63;;
7231;SDS011;3657;49.630;11.018;2022-11-11T15:19:07;5.57;;;5.37;;
7231;SDS011;3657;49.630;11.018;2022-11-11T15:21:49;5.60;;;5.30;;
7231;SDS011;3657;49.630;11.018;2022-11-11T15:24:28;6.50;;;6.20;;
7231;SDS011;3657;49.630;11.018;2022-11-11T15:27:07;6.17;;;5.87;;
7231;SDS011;3657;49.630;11.018;2022-11-11T15:29:56;5.40;;;5.23;;